• Join FlightAware (Why Join?)
  • Login
  • US Flag 
11:48AM EDT


 

Airport Tracker/Info


-or-


 

Live Flight TrackerFlight Track Log ✈ JBU917 ✈ 08-May-2013 ✈ KJFK - KORD

Flight Track Log - Related Links

Times and Time Zones

All times are in EDT time to prevent confusion due to time zone crossing. See the JBU917 flight status page for this flight to view local times or setup timezone preferences in your user account.

Time Position Orientation Groundspeed Altitude Reporting Facility
EDT Latitude Longitude Course Direction KTS MPH feet Rate Location/Type
10:57PM 40.5997 -73.8078 270° West 148 170 1,900  Level New York Center
10:57PM 40.5833 -73.8167 202° Southwest 172 198 2,100 1,800 Climbing New York TRACON
10:58PM 40.5333 -73.8667 217° Southwest 233 268 4,300 1,740 Climbing New York TRACON
10:59PM 40.3548 -74.2199 232° Southwest  Level FlightAware Approximate
11:00PM 40.2850 -74.3363 232° Southwest  Level FlightAware Approximate
11:00PM 40.4456 -73.9592 219° Southwest 263 303 6,900  Level New York Center
11:01PM 40.2173 -74.4490 229° Southwest  Level FlightAware Approximate
11:01PM 40.4058 -74.0417 238° Southwest 269 310 9,800  Level New York Center
11:02PM 40.1833 -74.5812 270° West  Level FlightAware Approximate
11:02PM 40.3636 -74.1406 241° Southwest 299 344 11,400  Level New York Center
11:03PM 40.3144 -74.2497 239° Southwest 335 386 13,900 2,520 Climbing New York Center
11:04PM 40.2653 -74.3586 239° Southwest 348 400 16,400 1,860 Climbing New York Center
11:05PM 40.2117 -74.4783 240° Southwest 367 422 17,700 1,620 Climbing New York Center
11:06PM 40.1953 -74.5997 260° West 372 428 19,700 1,800 Climbing New York Center
11:07PM 40.1864 -74.7431 265° West 385 443 21,300 1,800 Climbing New York Center
11:08PM 40.1703 -74.9025 263° West 395 455 23,300 1,740 Climbing New York Center
11:09PM 40.1589 -75.0511 264° West 407 468 24,900 1,500 Climbing New York Center
11:10PM 40.1469 -75.2025 264° West 413 475 26,300 1,440 Climbing New York Center
11:11PM 40.1350 -75.3539 264° West 419 482 27,800 1,140 Climbing New York Center
11:12PM 40.1289 -75.5081 267° West 424 488 28,600 780 Climbing New York Center
11:13PM 40.1306 -75.6711 271° West 431 496 29,400 1,200 Climbing New York Center
11:14PM 40.1300 -75.8342 270° West 443 510 31,000 1,200 Climbing New York Center
11:15PM 40.1272 -75.9942 269° West 443 510 31,800 840 Climbing New York Center
11:16PM 40.1303 -76.1544 271° West 443 510 32,700 840 Climbing New York Center
11:17PM 40.1236 -76.2978 267° West 443 510 33,600 1,140 Climbing New York Center
11:18PM 40.1225 -76.4553 270° West 443 510 35,000 960 Climbing New York Center
11:19PM 40.1231 -76.6128 270° West 438 504 35,600 480 Climbing New York Center
11:20PM 40.1214 -76.7703 269° West 438 504 36,000 180 Climbing New York Center
11:21PM 40.1194 -76.9328 269° West 443 510 36,000  Level New York Center
11:22PM 40.1167 -77.1011 269° West 450 518 36,000  Level New York Center
11:23PM 40.1158 -77.2694 270° West 460 529 36,000  Level New York Center
11:24PM 40.1136 -77.5967 270° West 454 522 36,000  Level Cleveland Center
11:25PM 40.1114 -77.7625 269° West 454 522 36,000  Level Cleveland Center
11:26PM 40.1111 -77.9253 270° West 461 531 36,000  Level Cleveland Center
11:27PM 40.1022 -78.0778 266° West 461 531 36,000  Level Cleveland Center
11:28PM 40.0994 -78.2408 269° West 461 531 36,000  Level Cleveland Center
11:29PM 40.0964 -78.4064 269° West 461 531 36,000  Level Cleveland Center
11:30PM 40.0931 -78.5722 269° West 461 531 36,000  Level Cleveland Center
11:31PM 40.0878 -78.7378 268° West 461 531 36,000  Level Cleveland Center
11:32PM 40.0839 -78.9033 268° West 461 531 36,000  Level Cleveland Center
11:33PM 40.0800 -79.0692 268° West 461 531 36,000 180 Level Cleveland Center
11:34PM 40.0758 -79.2319 268° West 461 531 36,400 720 Climbing Cleveland Center
11:35PM 40.0717 -79.4083 268° West 455 524 37,500 600 Climbing Cleveland Center
11:36PM 40.0667 -79.5467 267° West 448 516 37,700 240 Climbing Cleveland Center
11:37PM 40.0617 -79.7069 268° West 442 509 38,000 120 Climbing Cleveland Center
11:38PM 40.0544 -79.8697 267° West 442 509 38,000  Level Cleveland Center
11:39PM 40.0511 -80.0297 268° West 442 509 38,000  Level Cleveland Center
11:40PM 40.0456 -80.1900 267° West 442 509 38,000  Level Cleveland Center
11:41PM 40.0397 -80.3497 267° West 442 509 38,000  Level Cleveland Center
11:42PM 40.0317 -80.5072 266° West 442 509 38,000  Level Cleveland Center
11:43PM 40.0297 -80.6697 269° West 442 509 38,000  Level Cleveland Center
11:44PM 40.0419 -80.8272 276° West 442 509 38,000  Level Cleveland Center
11:45PM 40.0581 -80.9844 278° West 442 509 38,000  Level Cleveland Center
11:47PM 40.0761 -81.2411 275° West 435 501 38,000  Level Indianapolis Center
11:48PM 40.0892 -81.3972 276° West 431 496 38,000  Level Indianapolis Center
11:49PM 40.1033 -81.5544 277° West 432 497 38,000  Level Indianapolis Center
11:50PM 40.1164 -81.7128 276° West 434 499 38,000  Level Indianapolis Center
11:51PM 40.1283 -81.8547 276° West 431 496 38,000  Level Indianapolis Center
11:52PM 40.1411 -82.0092 276° West 426 490 38,000  Level Indianapolis Center
11:53PM 40.1528 -82.1656 276° West 429 494 38,000  Level Indianapolis Center
11:54PM 40.1653 -82.3206 276° West 426 490 38,000  Level Indianapolis Center
11:55PM 40.1781 -82.4764 276° West 428 493 38,000  Level Indianapolis Center
11:56PM 40.1903 -82.6342 276° West 433 498 38,000  Level Indianapolis Center
11:57PM 40.2042 -82.8161 276° West 430 495 38,000  Level Indianapolis Center
11:58PM 40.2147 -82.9714 275° West 429 494 38,000  Level Indianapolis Center
11:59PM 40.2261 -83.1269 276° West 428 493 38,000  Level Indianapolis Center
12:00AM 40.2367 -83.2831 275° West 430 495 38,000  Level Indianapolis Center
12:01AM 40.2483 -83.4394 276° West 431 496 38,000  Level Indianapolis Center
12:02AM 40.2581 -83.5969 275° West 435 501 38,000  Level Indianapolis Center
12:03AM 40.2678 -83.7522 275° West 429 494 38,000  Level Indianapolis Center
12:04AM 40.2783 -83.9081 275° West 428 493 38,000  Level Indianapolis Center
12:05AM 40.3017 -84.0617 281° West 430 495 38,000  Level Indianapolis Center
12:06AM 40.3747 -84.1844 308° West 427 491 38,000  Level Indianapolis Center
12:07AM 40.4444 -84.3136 305° West 432 497 38,000  Level Indianapolis Center
12:08AM 40.5003 -84.4542 298° West 432 497 38,000  Level Indianapolis Center
12:09AM 40.5556 -84.5975 297° West 436 502 38,000  Level Indianapolis Center
12:10AM 40.6117 -84.7381 298° West 430 495 38,000  Level Indianapolis Center
12:11AM 40.6450 -84.8244 297° West 425 489 38,000  Level Chicago Center
12:12AM 40.6978 -84.9625 297° West 423 487 38,000  Level Chicago Center
12:13AM 40.7522 -85.1017 297° West 425 489 38,000  Level Chicago Center
12:14AM 40.8058 -85.2414 297° West 426 490 38,000  Level Chicago Center
12:15AM 40.8597 -85.3814 297° West 427 491 38,000  Level Chicago Center
12:16AM 40.9119 -85.5231 296° West 427 491 38,000  Level Chicago Center
12:17AM 40.9667 -85.6642 297° West 429 494 38,000 -360 Level Chicago Center
12:18AM 41.0192 -85.8072 296° West 429 494 37,300 -1,740 Descending Chicago Center
12:19AM 41.0725 -85.9478 297° West 428 493 34,500 -2,700 Descending Chicago Center
12:20AM 41.1239 -86.0856 296° West 424 488 31,900 -2,700 Descending Chicago Center
12:21AM 41.1756 -86.2258 296° West 421 484 29,100 -2,880 Descending Chicago Center
12:22AM 41.2281 -86.3681 296° West 426 490 26,200 -2,760 Descending Chicago Center
12:23AM 41.2792 -86.5067 296° West 419 482 23,500 -2,640 Descending Chicago Center
12:24AM 41.3278 -86.6414 296° West 410 472 20,900 -2,760 Descending Chicago Center
12:25AM 41.3833 -86.7908 296° West 393 452 18,000 -2,640 Descending Chicago Center
12:26AM 41.4281 -86.9128 296° West 375 432 15,600 -2,340 Descending Chicago Center
12:27AM 41.4686 -87.0311 295° West 357 411 13,300 -2,460 Descending Chicago Center
12:28AM 41.5000 -87.1333 292° West 355 409 11,400 -1,140 Descending Chicago TRACON
12:29AM 41.5833 -87.2500 314° West 352 405 11,100 -180 Descending Chicago TRACON
12:30AM 41.6333 -87.3333 309° West 354 407 11,100 -120 Level Chicago TRACON
12:30AM 41.6364 -87.3483 285° West 352 405 11,000 -120 Descending Chicago Center
12:31AM 41.6994 -87.4483 310° West 355 409 11,000  Level Chicago Center
12:32AM 41.7614 -87.5481 310° West 353 406 11,000 -300 Level Chicago Center
12:33AM 41.8281 -87.6281 318° Northwest 326 375 10,500 -960 Descending Chicago Center
12:34AM 41.8667 -87.6833 313° West 279 321 9,500 -1,740 Descending Chicago TRACON
12:35AM 41.9167 -87.7500 315° West 274 315 8,000 -1,200 Descending Chicago TRACON
12:36AM 42.0000 -87.8333 323° Northwest 265 305 7,100 -480 Descending Chicago TRACON
12:37AM 42.0500 -87.8833 323° Northwest 263 303 7,000 -120 Descending Chicago TRACON
12:38AM 42.1000 -87.9167 334° Northwest 219 252 6,900 -660 Descending Chicago TRACON
12:39AM 42.1500 -87.9667 323° Northwest 223 257 5,700 -1,140 Descending Chicago TRACON
12:39AM 42.1686 -87.9836 326° Northwest 225 259 5,400 -1,080 Descending Chicago Center
12:40AM 42.2203 -88.0286 327° Northwest 224 258 4,200 -720 Descending Chicago Center
12:41AM 42.2078 -88.0939 256° West 211 243 4,000 -120 Descending Chicago Center
12:42AM 42.1639 -88.1061 192° South 192 221 4,000 -120 Level Chicago Center
12:43AM 42.1178 -88.0822 159° South 184 212 3,800 -540 Descending Chicago Center
12:44AM 42.0833 -88.0333 134° Southeast 179 206 3,000 -900 Descending Chicago TRACON
12:45AM 42.0333 -87.9833 143° Southeast 165 190 2,100 -900 Descending Chicago TRACON
12:46AM 42.0167 -87.9500 124° Southeast 129 148 1,300 -840 Descending Chicago TRACON
12:49AM 41.9817 -87.9067 141° Southeast  Level Estimated